sensor_id;sensor_type;location;lat;lon;timestamp;P1;durP1;ratioP1;P2;durP2;ratioP2
11230;SDS011;5672;51.060;3.734;2023-06-26T16:05:27;3.20;;;1.90;;
11230;SDS011;5672;51.060;3.734;2023-06-26T16:07:53;2.90;;;1.60;;
11230;SDS011;5672;51.060;3.734;2023-06-26T16:10:19;123.30;;;90.40;;
11230;SDS011;5672;51.060;3.734;2023-06-26T16:12:45;106.13;;;92.17;;
11230;SDS011;5672;51.060;3.734;2023-06-26T16:15:11;113.87;;;78.43;;
11230;SDS011;5672;51.060;3.734;2023-06-26T16:17:37;120.20;;;104.50;;
11230;SDS011;5672;51.060;3.734;2023-06-26T16:20:03;218.77;;;197.77;;
11230;SDS011;5672;51.060;3.734;2023-06-26T16:22:29;44.03;;;36.33;;
11230;SDS011;5672;51.060;3.734;2023-06-26T16:24:55;689.40;;;623.53;;
11230;SDS011;5672;51.060;3.734;2023-06-26T16:27:21;132.47;;;113.87;;
11230;SDS011;5672;51.060;3.734;2023-06-26T16:29:46;43.57;;;25.17;;
11230;SDS011;5672;51.060;3.734;2023-06-26T16:32:12;18.10;;;16.30;;
11230;SDS011;5672;51.060;3.734;2023-06-26T16:34:38;27.70;;;20.00;;
11230;SDS011;5672;51.060;3.734;2023-06-26T16:37:04;1096.35;;;999.55;;
11230;SDS011;5672;51.060;3.734;2023-06-26T16:39:33;542.37;;;491.37;;
11230;SDS011;5672;51.060;3.734;2023-06-26T16:41:59;103.37;;;89.30;;
11230;SDS011;5672;51.060;3.734;2023-06-26T16:44:25;455.03;;;413.03;;
11230;SDS011;5672;51.060;3.734;2023-06-26T16:46:55;160.97;;;146.27;;
11230;SDS011;5672;51.060;3.734;2023-06-26T16:49:25;613.23;;;559.67;;
11230;SDS011;5672;51.060;3.734;2023-06-26T16:51:51;522.33;;;461.00;;
11230;SDS011;5672;51.060;3.734;2023-06-26T16:54:21;736.90;;;662.20;;
11230;SDS011;5672;51.060;3.734;2023-06-26T16:56:48;377.77;;;339.67;;
11230;SDS011;5672;51.060;3.734;2023-06-26T16:59:14;415.17;;;383.90;;
11230;SDS011;5672;51.060;3.734;2023-06-26T17:01:40;910.65;;;819.00;;
11230;SDS011;5672;51.060;3.734;2023-06-26T17:04:06;1252.63;;;999.90;;
11230;SDS011;5672;51.060;3.734;2023-06-26T17:06:32;938.30;;;854.50;;
11230;SDS011;5672;51.060;3.734;2023-06-26T17:08:58;9.00;;;8.13;;
11230;SDS011;5672;51.060;3.734;2023-06-26T17:11:23;126.63;;;112.83;;
11230;SDS011;5672;51.060;3.734;2023-06-26T17:13:49;1043.38;;;956.45;;
11230;SDS011;5672;51.060;3.734;2023-06-26T17:16:15;352.40;;;313.90;;
11230;SDS011;5672;51.060;3.734;2023-06-26T17:18:41;13.90;;;5.33;;
11230;SDS011;5672;51.060;3.734;2023-06-26T17:21:07;596.40;;;545.37;;
11230;SDS011;5672;51.060;3.734;2023-06-26T17:23:37;5.82;;;3.03;;
11230;SDS011;5672;51.060;3.734;2023-06-26T17:26:03;1157.97;;;999.90;;
11230;SDS011;5672;51.060;3.734;2023-06-26T17:28:30;27.50;;;15.73;;
11230;SDS011;5672;51.060;3.734;2023-06-26T17:30:56;1172.23;;;999.90;;
11230;SDS011;5672;51.060;3.734;2023-06-26T17:33:22;1159.27;;;999.90;;
11230;SDS011;5672;51.060;3.734;2023-06-26T17:35:48;840.63;;;767.40;;
11230;SDS011;5672;51.060;3.734;2023-06-26T17:38:14;1164.63;;;999.90;;
11230;SDS011;5672;51.060;3.734;2023-06-26T17:40:40;7.43;;;4.03;;
11230;SDS011;5672;51.060;3.734;2023-06-26T17:43:06;893.47;;;818.47;;
11230;SDS011;5672;51.060;3.734;2023-06-26T17:45:32;1043.97;;;961.03;;
11230;SDS011;5672;51.060;3.734;2023-06-26T17:47:59;1156.57;;;999.90;;
11230;SDS011;5672;51.060;3.734;2023-06-26T17:50:25;900.37;;;820.93;;
11230;SDS011;5672;51.060;3.734;2023-06-26T17:52:51;1073.33;;;987.63;;
11230;SDS011;5672;51.060;3.734;2023-06-26T17:55:17;569.63;;;521.13;;
11230;SDS011;5672;51.060;3.734;2023-06-26T17:57:43;446.67;;;408.60;;
11230;SDS011;5672;51.060;3.734;2023-06-26T18:00:09;9.67;;;7.73;;
11230;SDS011;5672;51.060;3.734;2023-06-26T18:02:36;1058.20;;;964.57;;
11230;SDS011;5672;51.060;3.734;2023-06-26T18:05:05;301.93;;;273.93;;
11230;SDS011;5672;51.060;3.734;2023-06-26T18:07:31;217.83;;;197.37;;
11230;SDS011;5672;51.060;3.734;2023-06-26T18:09:57;1005.17;;;925.67;;
11230;SDS011;5672;51.060;3.734;2023-06-26T18:12:23;235.13;;;201.87;;
11230;SDS011;5672;51.060;3.734;2023-06-26T18:14:49;1570.93;;;950.10;;
11230;SDS011;5672;51.060;3.734;2023-06-26T18:17:15;546.03;;;414.97;;
11230;SDS011;5672;51.060;3.734;2023-06-26T18:19:41;207.30;;;139.67;;
11230;SDS011;5672;51.060;3.734;2023-06-26T18:22:07;68.60;;;44.60;;
11230;SDS011;5672;51.060;3.734;2023-06-26T18:24:33;20.87;;;11.23;;
11230;SDS011;5672;51.060;3.734;2023-06-26T18:26:59;19.77;;;12.97;;
11230;SDS011;5672;51.060;3.734;2023-06-26T18:29:25;167.77;;;56.27;;
11230;SDS011;5672;51.060;3.734;2023-06-26T18:31:51;70.60;;;23.27;;
11230;SDS011;5672;51.060;3.734;2023-06-26T18:34:17;27.73;;;10.90;;
11230;SDS011;5672;51.060;3.734;2023-06-26T18:36:43;20.30;;;7.77;;
11230;SDS011;5672;51.060;3.734;2023-06-26T18:39:09;8.53;;;4.43;;
11230;SDS011;5672;51.060;3.734;2023-06-26T18:41:36;4.93;;;2.63;;
11230;SDS011;5672;51.060;3.734;2023-06-26T18:44:03;6.33;;;2.47;;
11230;SDS011;5672;51.060;3.734;2023-06-26T18:46:31;13.87;;;8.57;;
11230;SDS011;5672;51.060;3.734;2023-06-26T18:49:03;11.07;;;7.23;;
11230;SDS011;5672;51.060;3.734;2023-06-26T18:51:33;6.43;;;3.83;;
11230;SDS011;5672;51.060;3.734;2023-06-26T18:53:59;13.00;;;6.27;;
11230;SDS011;5672;51.060;3.734;2023-06-26T18:56:28;5.63;;;4.23;;
11230;SDS011;5672;51.060;3.734;2023-06-26T18:58:54;5.57;;;3.53;;
11230;SDS011;5672;51.060;3.734;2023-06-26T19:01:20;4.40;;;3.10;;
11230;SDS011;5672;51.060;3.734;2023-06-26T19:03:46;5.00;;;2.60;;
11230;SDS011;5672;51.060;3.734;2023-06-26T19:06:13;8.30;;;2.87;;
11230;SDS011;5672;51.060;3.734;2023-06-26T19:08:39;7.73;;;3.00;;
11230;SDS011;5672;51.060;3.734;2023-06-26T19:11:08;6.70;;;3.10;;
11230;SDS011;5672;51.060;3.734;2023-06-26T19:13:34;7.87;;;3.47;;
11230;SDS011;5672;51.060;3.734;2023-06-26T19:16:00;5.40;;;2.63;;
11230;SDS011;5672;51.060;3.734;2023-06-26T19:18:26;6.20;;;2.77;;
11230;SDS011;5672;51.060;3.734;2023-06-26T19:20:52;7.80;;;3.30;;
11230;SDS011;5672;51.060;3.734;2023-06-26T19:23:18;6.57;;;2.93;;
11230;SDS011;5672;51.060;3.734;2023-06-26T19:25:45;6.77;;;2.80;;
11230;SDS011;5672;51.060;3.734;2023-06-26T19:28:11;7.57;;;2.63;;
11230;SDS011;5672;51.060;3.734;2023-06-26T19:30:37;3.77;;;2.60;;
11230;SDS011;5672;51.060;3.734;2023-06-26T19:33:03;6.93;;;2.70;;
11230;SDS011;5672;51.060;3.734;2023-06-26T19:35:30;5.83;;;2.53;;
11230;SDS011;5672;51.060;3.734;2023-06-26T19:37:56;5.90;;;2.80;;
11230;SDS011;5672;51.060;3.734;2023-06-26T19:40:22;8.77;;;2.70;;
11230;SDS011;5672;51.060;3.734;2023-06-26T19:42:48;6.57;;;2.47;;
11230;SDS011;5672;51.060;3.734;2023-06-26T19:45:14;14.43;;;7.80;;
11230;SDS011;5672;51.060;3.734;2023-06-26T19:47:40;5.07;;;2.40;;
11230;SDS011;5672;51.060;3.734;2023-06-26T19:50:06;6.50;;;2.40;;
11230;SDS011;5672;51.060;3.734;2023-06-26T19:52:34;6.57;;;2.33;;
11230;SDS011;5672;51.060;3.734;2023-06-26T19:55:00;8.23;;;2.97;;
11230;SDS011;5672;51.060;3.734;2023-06-26T19:57:26;33.80;;;15.80;;
11230;SDS011;5672;51.060;3.734;2023-06-26T19:59:52;4.20;;;2.30;;
11230;SDS011;5672;51.060;3.734;2023-06-26T20:02:18;70.20;;;38.37;;
11230;SDS011;5672;51.060;3.734;2023-06-26T20:04:44;630.10;;;568.90;;
11230;SDS011;5672;51.060;3.734;2023-06-26T20:07:10;77.87;;;50.73;;
11230;SDS011;5672;51.060;3.734;2023-06-26T20:09:37;49.87;;;32.10;;
11230;SDS011;5672;51.060;3.734;2023-06-26T20:12:03;123.47;;;78.10;;
11230;SDS011;5672;51.060;3.734;2023-06-26T20:14:30;13.20;;;5.27;;
11230;SDS011;5672;51.060;3.734;2023-06-26T20:16:56;7.07;;;2.60;;
11230;SDS011;5672;51.060;3.734;2023-06-26T20:19:25;241.17;;;221.13;;
11230;SDS011;5672;51.060;3.734;2023-06-26T20:21:51;130.67;;;118.87;;
11230;SDS011;5672;51.060;3.734;2023-06-26T20:24:17;370.20;;;324.00;;
11230;SDS011;5672;51.060;3.734;2023-06-26T20:26:44;4.30;;;2.43;;
11230;SDS011;5672;51.060;3.734;2023-06-26T20:29:10;44.13;;;26.00;;
11230;SDS011;5672;51.060;3.734;2023-06-26T20:31:37;5.00;;;2.43;;
11230;SDS011;5672;51.060;3.734;2023-06-26T20:34:04;5.53;;;2.67;;
11230;SDS011;5672;51.060;3.734;2023-06-26T20:36:30;157.57;;;139.50;;
11230;SDS011;5672;51.060;3.734;2023-06-26T20:38:56;463.77;;;417.80;;
11230;SDS011;5672;51.060;3.734;2023-06-26T20:41:22;349.33;;;286.53;;
11230;SDS011;5672;51.060;3.734;2023-06-26T20:43:48;191.50;;;171.10;;
11230;SDS011;5672;51.060;3.734;2023-06-26T20:46:15;537.13;;;484.77;;
11230;SDS011;5672;51.060;3.734;2023-06-26T20:48:43;364.40;;;330.03;;
11230;SDS011;5672;51.060;3.734;2023-06-26T20:51:09;966.43;;;883.57;;
11230;SDS011;5672;51.060;3.734;2023-06-26T20:53:35;1057.17;;;961.83;;
11230;SDS011;5672;51.060;3.734;2023-06-26T20:56:01;1161.13;;;999.90;;
11230;SDS011;5672;51.060;3.734;2023-06-26T20:58:27;1160.67;;;999.90;;
11230;SDS011;5672;51.060;3.734;2023-06-26T21:00:53;1058.80;;;972.23;;
11230;SDS011;5672;51.060;3.734;2023-06-26T21:03:19;1194.67;;;999.90;;
11230;SDS011;5672;51.060;3.734;2023-06-26T21:05:45;753.60;;;689.10;;
11230;SDS011;5672;51.060;3.734;2023-06-26T21:08:11;1018.00;;;930.40;;
11230;SDS011;5672;51.060;3.734;2023-06-26T21:10:37;311.07;;;282.03;;
11230;SDS011;5672;51.060;3.734;2023-06-26T21:13:04;385.37;;;354.00;;
11230;SDS011;5672;51.060;3.734;2023-06-26T21:15:30;280.73;;;251.40;;
11230;SDS011;5672;51.060;3.734;2023-06-26T21:17:56;207.33;;;187.67;;
11230;SDS011;5672;51.060;3.734;2023-06-26T21:20:22;311.87;;;283.70;;
11230;SDS011;5672;51.060;3.734;2023-06-26T21:22:48;1154.60;;;999.90;;
11230;SDS011;5672;51.060;3.734;2023-06-26T21:27:40;1153.20;;;999.90;;
11230;SDS011;5672;51.060;3.734;2023-06-26T21:30:06;1267.70;;;999.90;;
11230;SDS011;5672;51.060;3.734;2023-06-26T21:32:33;1303.90;;;999.90;;
11230;SDS011;5672;51.060;3.734;2023-06-26T21:34:59;1142.75;;;999.90;;
11230;SDS011;5672;51.060;3.734;2023-06-26T21:37:25;1325.13;;;999.90;;
11230;SDS011;5672;51.060;3.734;2023-06-26T21:42:17;68.25;;;63.05;;
11230;SDS011;5672;51.060;3.734;2023-06-26T21:44:43;34.40;;;31.55;;
11230;SDS011;5672;51.060;3.734;2023-06-26T21:49:35;1156.20;;;999.90;;
11230;SDS011;5672;51.060;3.734;2023-06-26T21:52:01;1375.27;;;999.90;;
11230;SDS011;5672;51.060;3.734;2023-06-26T21:54:27;1381.57;;;999.90;;
11230;SDS011;5672;51.060;3.734;2023-06-26T21:56:53;1393.50;;;999.90;;
11230;SDS011;5672;51.060;3.734;2023-06-26T22:04:11;1415.57;;;999.90;;
11230;SDS011;5672;51.060;3.734;2023-06-26T22:13:56;63.85;;;54.70;;
11230;SDS011;5672;51.060;3.734;2023-06-26T22:16:22;1120.50;;;999.90;;
11230;SDS011;5672;51.060;3.734;2023-06-26T22:18:48;983.35;;;907.55;;
11230;SDS011;5672;51.060;3.734;2023-06-26T22:23:40;1130.07;;;999.90;;
11230;SDS011;5672;51.060;3.734;2023-06-26T22:26:06;1329.27;;;999.90;;
11230;SDS011;5672;51.060;3.734;2023-06-26T22:28:32;1223.57;;;999.90;;
11230;SDS011;5672;51.060;3.734;2023-06-26T22:30:57;1250.40;;;999.90;;
11230;SDS011;5672;51.060;3.734;2023-06-26T22:33:23;1248.43;;;999.90;;
11230;SDS011;5672;51.060;3.734;2023-06-26T22:38:15;1055.00;;;967.43;;
11230;SDS011;5672;51.060;3.734;2023-06-26T22:43:07;1023.20;;;940.50;;
11230;SDS011;5672;51.060;3.734;2023-06-26T22:45:34;871.60;;;796.90;;
11230;SDS011;5672;51.060;3.734;2023-06-26T22:48:00;908.47;;;832.03;;
11230;SDS011;5672;51.060;3.734;2023-06-26T22:50:26;930.47;;;852.00;;
11230;SDS011;5672;51.060;3.734;2023-06-26T22:52:52;1040.20;;;953.80;;
11230;SDS011;5672;51.060;3.734;2023-06-26T22:55:19;1004.17;;;924.00;;
11230;SDS011;5672;51.060;3.734;2023-06-26T22:57:48;1146.37;;;999.90;;
11230;SDS011;5672;51.060;3.734;2023-06-26T23:00:14;458.43;;;419.77;;
11230;SDS011;5672;51.060;3.734;2023-06-26T23:02:40;245.20;;;222.63;;
11230;SDS011;5672;51.060;3.734;2023-06-26T23:05:06;340.00;;;303.63;;
11230;SDS011;5672;51.060;3.734;2023-06-26T23:07:34;65.13;;;25.13;;
11230;SDS011;5672;51.060;3.734;2023-06-26T23:10:01;579.63;;;528.73;;
11230;SDS011;5672;51.060;3.734;2023-06-26T23:12:27;879.50;;;802.17;;
11230;SDS011;5672;51.060;3.734;2023-06-26T23:14:53;925.83;;;844.73;;
11230;SDS011;5672;51.060;3.734;2023-06-26T23:17:19;1120.87;;;999.90;;
11230;SDS011;5672;51.060;3.734;2023-06-26T23:19:45;1089.27;;;998.10;;
11230;SDS011;5672;51.060;3.734;2023-06-26T23:22:13;276.13;;;247.60;;
11230;SDS011;5672;51.060;3.734;2023-06-26T23:24:40;56.73;;;51.00;;
11230;SDS011;5672;51.060;3.734;2023-06-26T23:27:06;1083.30;;;995.87;;
11230;SDS011;5672;51.060;3.734;2023-06-26T23:29:36;1024.87;;;943.00;;
11230;SDS011;5672;51.060;3.734;2023-06-26T23:32:02;470.33;;;422.23;;
11230;SDS011;5672;51.060;3.734;2023-06-26T23:34:30;822.00;;;754.83;;
11230;SDS011;5672;51.060;3.734;2023-06-26T23:36:56;811.20;;;740.87;;
11230;SDS011;5672;51.060;3.734;2023-06-26T23:39:22;332.47;;;305.17;;
11230;SDS011;5672;51.060;3.734;2023-06-26T23:41:48;11.13;;;3.07;;
11230;SDS011;5672;51.060;3.734;2023-06-26T23:44:14;343.87;;;315.43;;
11230;SDS011;5672;51.060;3.734;2023-06-26T23:46:44;411.70;;;376.07;;
11230;SDS011;5672;51.060;3.734;2023-06-26T23:49:10;13.43;;;3.97;;
11230;SDS011;5672;51.060;3.734;2023-06-26T23:51:36;9.43;;;2.83;;
11230;SDS011;5672;51.060;3.734;2023-06-26T23:54:02;32.70;;;15.17;;
11230;SDS011;5672;51.060;3.734;2023-06-26T23:56:29;12.73;;;4.93;;
11230;SDS011;5672;51.060;3.734;2023-06-26T23:58:55;10.97;;;2.90;;
